sensor_id;sensor_type;location;lat;lon;timestamp;temperature;humidity
3300;DHT22;1662;49.310;8.134;2022-08-19T00:01:54;22.30;99.90
3300;DHT22;1662;49.310;8.134;2022-08-19T00:04:29;22.40;99.90
3300;DHT22;1662;49.310;8.134;2022-08-19T00:06:55;22.30;99.90
3300;DHT22;1662;49.310;8.134;2022-08-19T00:09:22;22.30;99.90
3300;DHT22;1662;49.310;8.134;2022-08-19T00:11:48;22.30;99.90
3300;DHT22;1662;49.310;8.134;2022-08-19T00:14:16;22.30;99.90
3300;DHT22;1662;49.310;8.134;2022-08-19T00:16:46;22.30;99.90
3300;DHT22;1662;49.310;8.134;2022-08-19T00:19:13;22.30;99.90
3300;DHT22;1662;49.310;8.134;2022-08-19T00:21:39;22.30;99.90
3300;DHT22;1662;49.310;8.134;2022-08-19T00:24:09;22.20;99.90
3300;DHT22;1662;49.310;8.134;2022-08-19T00:26:36;22.20;99.90
3300;DHT22;1662;49.310;8.134;2022-08-19T00:29:06;22.20;99.90
3300;DHT22;1662;49.310;8.134;2022-08-19T00:31:32;22.20;99.90
3300;DHT22;1662;49.310;8.134;2022-08-19T00:33:57;22.20;99.90
3300;DHT22;1662;49.310;8.134;2022-08-19T00:36:23;22.20;99.90
3300;DHT22;1662;49.310;8.134;2022-08-19T00:38:49;22.20;99.90
3300;DHT22;1662;49.310;8.134;2022-08-19T00:41:20;22.20;99.90
3300;DHT22;1662;49.310;8.134;2022-08-19T00:44:04;22.20;99.90
3300;DHT22;1662;49.310;8.134;2022-08-19T00:46:31;22.20;99.90
3300;DHT22;1662;49.310;8.134;2022-08-19T00:48:59;22.20;99.90
3300;DHT22;1662;49.310;8.134;2022-08-19T00:51:29;22.20;99.90
3300;DHT22;1662;49.310;8.134;2022-08-19T00:53:56;22.20;99.90
3300;DHT22;1662;49.310;8.134;2022-08-19T00:56:22;22.20;99.90
3300;DHT22;1662;49.310;8.134;2022-08-19T00:58:48;22.20;99.90
3300;DHT22;1662;49.310;8.134;2022-08-19T01:01:17;22.20;99.90
3300;DHT22;1662;49.310;8.134;2022-08-19T01:03:43;22.20;99.90
3300;DHT22;1662;49.310;8.134;2022-08-19T01:06:09;22.20;99.90
3300;DHT22;1662;49.310;8.134;2022-08-19T01:08:37;22.10;99.90
3300;DHT22;1662;49.310;8.134;2022-08-19T01:11:02;22.10;99.90
3300;DHT22;1662;49.310;8.134;2022-08-19T01:13:32;22.10;99.90
3300;DHT22;1662;49.310;8.134;2022-08-19T01:16:03;22.10;99.90
3300;DHT22;1662;49.310;8.134;2022-08-19T01:18:29;22.00;99.90
3300;DHT22;1662;49.310;8.134;2022-08-19T01:21:02;22.10;99.90
3300;DHT22;1662;49.310;8.134;2022-08-19T01:23:31;22.10;99.90
3300;DHT22;1662;49.310;8.134;2022-08-19T01:26:18;22.10;99.90
3300;DHT22;1662;49.310;8.134;2022-08-19T01:28:45;22.00;99.90
3300;DHT22;1662;49.310;8.134;2022-08-19T01:31:21;22.00;99.90
3300;DHT22;1662;49.310;8.134;2022-08-19T01:33:49;22.00;99.90
3300;DHT22;1662;49.310;8.134;2022-08-19T01:36:26;22.00;99.90
3300;DHT22;1662;49.310;8.134;2022-08-19T01:38:53;22.00;99.90
3300;DHT22;1662;49.310;8.134;2022-08-19T01:41:22;22.00;99.90
3300;DHT22;1662;49.310;8.134;2022-08-19T01:43:49;22.00;99.90
3300;DHT22;1662;49.310;8.134;2022-08-19T01:46:18;22.00;99.90
3300;DHT22;1662;49.310;8.134;2022-08-19T01:48:46;22.00;99.90
3300;DHT22;1662;49.310;8.134;2022-08-19T01:51:13;22.00;99.90
3300;DHT22;1662;49.310;8.134;2022-08-19T01:53:40;22.00;99.90
3300;DHT22;1662;49.310;8.134;2022-08-19T01:56:06;22.00;99.90
3300;DHT22;1662;49.310;8.134;2022-08-19T01:58:36;22.00;99.90
3300;DHT22;1662;49.310;8.134;2022-08-19T02:01:07;22.00;99.90
3300;DHT22;1662;49.310;8.134;2022-08-19T02:03:33;22.00;99.90
3300;DHT22;1662;49.310;8.134;2022-08-19T02:06:01;22.00;99.90
3300;DHT22;1662;49.310;8.134;2022-08-19T02:08:31;22.00;99.90
3300;DHT22;1662;49.310;8.134;2022-08-19T02:10:57;22.00;99.90
3300;DHT22;1662;49.310;8.134;2022-08-19T02:13:23;22.00;99.90
3300;DHT22;1662;49.310;8.134;2022-08-19T02:15:49;22.00;99.90
3300;DHT22;1662;49.310;8.134;2022-08-19T02:18:15;22.00;99.90
3300;DHT22;1662;49.310;8.134;2022-08-19T02:20:42;22.00;99.90
3300;DHT22;1662;49.310;8.134;2022-08-19T02:23:13;21.90;99.90
3300;DHT22;1662;49.310;8.134;2022-08-19T02:25:43;21.90;99.90
3300;DHT22;1662;49.310;8.134;2022-08-19T02:28:09;21.90;99.90
3300;DHT22;1662;49.310;8.134;2022-08-19T02:30:35;21.90;99.90
3300;DHT22;1662;49.310;8.134;2022-08-19T02:33:00;21.90;99.90
3300;DHT22;1662;49.310;8.134;2022-08-19T02:35:26;21.90;99.90
3300;DHT22;1662;49.310;8.134;2022-08-19T02:37:52;21.80;99.90
3300;DHT22;1662;49.310;8.134;2022-08-19T02:40:36;21.80;99.90
3300;DHT22;1662;49.310;8.134;2022-08-19T02:43:05;21.80;99.90
3300;DHT22;1662;49.310;8.134;2022-08-19T02:45:38;21.90;99.90
3300;DHT22;1662;49.310;8.134;2022-08-19T02:48:04;21.80;99.90
3300;DHT22;1662;49.310;8.134;2022-08-19T02:50:31;21.80;99.90
3300;DHT22;1662;49.310;8.134;2022-08-19T02:53:01;21.80;99.90
3300;DHT22;1662;49.310;8.134;2022-08-19T02:55:27;21.80;99.90
3300;DHT22;1662;49.310;8.134;2022-08-19T02:57:52;21.80;99.90
3300;DHT22;1662;49.310;8.134;2022-08-19T03:00:18;21.80;99.90
3300;DHT22;1662;49.310;8.134;2022-08-19T03:02:44;21.80;99.90
3300;DHT22;1662;49.310;8.134;2022-08-19T03:05:10;21.90;99.90
3300;DHT22;1662;49.310;8.134;2022-08-19T03:07:36;21.90;99.90
3300;DHT22;1662;49.310;8.134;2022-08-19T03:10:03;21.80;99.90
3300;DHT22;1662;49.310;8.134;2022-08-19T03:12:29;21.80;99.90
3300;DHT22;1662;49.310;8.134;2022-08-19T03:14:54;21.70;99.90
3300;DHT22;1662;49.310;8.134;2022-08-19T03:17:22;21.70;99.90
3300;DHT22;1662;49.310;8.134;2022-08-19T03:19:48;21.70;99.90
3300;DHT22;1662;49.310;8.134;2022-08-19T03:22:14;21.70;99.90
3300;DHT22;1662;49.310;8.134;2022-08-19T03:24:39;21.70;99.90
3300;DHT22;1662;49.310;8.134;2022-08-19T03:27:05;21.60;99.90
3300;DHT22;1662;49.310;8.134;2022-08-19T03:29:31;21.60;99.90
3300;DHT22;1662;49.310;8.134;2022-08-19T03:31:59;21.60;99.90
3300;DHT22;1662;49.310;8.134;2022-08-19T03:34:28;21.60;99.90
3300;DHT22;1662;49.310;8.134;2022-08-19T03:36:56;21.60;99.90
3300;DHT22;1662;49.310;8.134;2022-08-19T03:39:25;21.60;99.90
3300;DHT22;1662;49.310;8.134;2022-08-19T03:41:52;21.60;99.90
3300;DHT22;1662;49.310;8.134;2022-08-19T03:44:21;21.60;99.90
3300;DHT22;1662;49.310;8.134;2022-08-19T03:46:53;21.60;99.90
3300;DHT22;1662;49.310;8.134;2022-08-19T03:49:21;21.60;99.90
3300;DHT22;1662;49.310;8.134;2022-08-19T03:51:48;21.60;99.90
3300;DHT22;1662;49.310;8.134;2022-08-19T03:54:21;21.50;99.90
3300;DHT22;1662;49.310;8.134;2022-08-19T03:56:49;21.50;99.90
3300;DHT22;1662;49.310;8.134;2022-08-19T03:59:19;21.60;99.90
3300;DHT22;1662;49.310;8.134;2022-08-19T04:01:45;21.50;99.90
3300;DHT22;1662;49.310;8.134;2022-08-19T04:04:11;21.50;99.90
3300;DHT22;1662;49.310;8.134;2022-08-19T04:06:38;21.50;99.90
3300;DHT22;1662;49.310;8.134;2022-08-19T04:09:07;21.50;99.90
3300;DHT22;1662;49.310;8.134;2022-08-19T04:11:49;21.50;99.90
3300;DHT22;1662;49.310;8.134;2022-08-19T04:14:18;21.50;99.90
3300;DHT22;1662;49.310;8.134;2022-08-19T04:16:45;21.50;99.90
3300;DHT22;1662;49.310;8.134;2022-08-19T04:19:12;21.50;99.90
3300;DHT22;1662;49.310;8.134;2022-08-19T04:21:43;21.50;99.90
3300;DHT22;1662;49.310;8.134;2022-08-19T04:24:11;21.50;99.90
3300;DHT22;1662;49.310;8.134;2022-08-19T04:26:37;21.50;99.90
3300;DHT22;1662;49.310;8.134;2022-08-19T04:29:33;21.50;99.90
3300;DHT22;1662;49.310;8.134;2022-08-19T04:31:59;21.40;99.90
3300;DHT22;1662;49.310;8.134;2022-08-19T04:34:26;21.40;99.90
3300;DHT22;1662;49.310;8.134;2022-08-19T04:36:57;21.40;99.90
3300;DHT22;1662;49.310;8.134;2022-08-19T04:39:29;21.40;99.90
3300;DHT22;1662;49.310;8.134;2022-08-19T04:42:15;21.50;99.90
3300;DHT22;1662;49.310;8.134;2022-08-19T04:44:59;21.50;99.90
3300;DHT22;1662;49.310;8.134;2022-08-19T04:47:26;21.50;99.90
3300;DHT22;1662;49.310;8.134;2022-08-19T04:49:51;21.50;99.90
3300;DHT22;1662;49.310;8.134;2022-08-19T04:52:17;21.50;99.90
3300;DHT22;1662;49.310;8.134;2022-08-19T04:54:45;21.50;99.90
3300;DHT22;1662;49.310;8.134;2022-08-19T04:57:10;21.40;99.90
3300;DHT22;1662;49.310;8.134;2022-08-19T04:59:37;21.40;99.90
3300;DHT22;1662;49.310;8.134;2022-08-19T05:02:04;21.40;99.90
3300;DHT22;1662;49.310;8.134;2022-08-19T05:04:33;21.40;99.90
3300;DHT22;1662;49.310;8.134;2022-08-19T05:07:00;21.40;99.90
3300;DHT22;1662;49.310;8.134;2022-08-19T05:09:31;21.40;99.90
3300;DHT22;1662;49.310;8.134;2022-08-19T05:11:59;21.40;99.90
3300;DHT22;1662;49.310;8.134;2022-08-19T05:14:28;21.40;99.90
3300;DHT22;1662;49.310;8.134;2022-08-19T05:16:54;21.40;99.90
3300;DHT22;1662;49.310;8.134;2022-08-19T05:19:19;21.40;99.90
3300;DHT22;1662;49.310;8.134;2022-08-19T05:22:04;21.40;99.90
3300;DHT22;1662;49.310;8.134;2022-08-19T05:24:48;21.40;99.90
3300;DHT22;1662;49.310;8.134;2022-08-19T05:27:14;21.50;99.90
3300;DHT22;1662;49.310;8.134;2022-08-19T05:29:39;21.50;99.90
3300;DHT22;1662;49.310;8.134;2022-08-19T05:32:06;21.50;99.90
3300;DHT22;1662;49.310;8.134;2022-08-19T05:34:36;21.50;99.90
3300;DHT22;1662;49.310;8.134;2022-08-19T05:37:04;21.50;99.90
3300;DHT22;1662;49.310;8.134;2022-08-19T05:39:32;21.60;99.90
3300;DHT22;1662;49.310;8.134;2022-08-19T05:42:05;21.70;99.90
3300;DHT22;1662;49.310;8.134;2022-08-19T05:44:39;21.70;99.90
3300;DHT22;1662;49.310;8.134;2022-08-19T05:47:08;21.70;99.90
3300;DHT22;1662;49.310;8.134;2022-08-19T05:49:35;21.70;99.90
3300;DHT22;1662;49.310;8.134;2022-08-19T05:52:04;21.80;99.90
3300;DHT22;1662;49.310;8.134;2022-08-19T05:54:30;21.70;99.90
3300;DHT22;1662;49.310;8.134;2022-08-19T05:56:56;21.80;99.90
3300;DHT22;1662;49.310;8.134;2022-08-19T05:59:22;21.80;99.90
3300;DHT22;1662;49.310;8.134;2022-08-19T06:01:50;21.80;99.90
3300;DHT22;1662;49.310;8.134;2022-08-19T06:04:18;21.80;99.90
3300;DHT22;1662;49.310;8.134;2022-08-19T06:06:46;21.80;99.90
3300;DHT22;1662;49.310;8.134;2022-08-19T06:09:13;21.80;99.90
3300;DHT22;1662;49.310;8.134;2022-08-19T06:11:42;21.80;99.90
3300;DHT22;1662;49.310;8.134;2022-08-19T06:14:20;21.80;99.90
3300;DHT22;1662;49.310;8.134;2022-08-19T06:16:47;21.80;99.90
3300;DHT22;1662;49.310;8.134;2022-08-19T06:19:15;21.80;99.90
3300;DHT22;1662;49.310;8.134;2022-08-19T06:21:43;21.80;99.90
3300;DHT22;1662;49.310;8.134;2022-08-19T06:24:12;21.80;99.90
3300;DHT22;1662;49.310;8.134;2022-08-19T06:26:41;21.90;99.90
3300;DHT22;1662;49.310;8.134;2022-08-19T06:29:08;21.90;99.90
3300;DHT22;1662;49.310;8.134;2022-08-19T06:31:35;21.90;99.90
3300;DHT22;1662;49.310;8.134;2022-08-19T06:34:03;21.90;99.90
3300;DHT22;1662;49.310;8.134;2022-08-19T06:36:38;22.00;99.90
3300;DHT22;1662;49.310;8.134;2022-08-19T06:39:08;22.00;99.90
3300;DHT22;1662;49.310;8.134;2022-08-19T06:41:43;22.00;99.90
3300;DHT22;1662;49.310;8.134;2022-08-19T06:44:10;22.00;99.90
3300;DHT22;1662;49.310;8.134;2022-08-19T06:46:39;22.00;99.90
3300;DHT22;1662;49.310;8.134;2022-08-19T06:49:06;22.10;99.90
3300;DHT22;1662;49.310;8.134;2022-08-19T06:51:35;22.10;99.90
3300;DHT22;1662;49.310;8.134;2022-08-19T06:54:01;22.20;99.90
3300;DHT22;1662;49.310;8.134;2022-08-19T06:56:29;22.20;99.90
3300;DHT22;1662;49.310;8.134;2022-08-19T06:58:57;22.20;99.90
3300;DHT22;1662;49.310;8.134;2022-08-19T07:01:23;22.30;99.90
3300;DHT22;1662;49.310;8.134;2022-08-19T07:03:49;22.30;99.90
3300;DHT22;1662;49.310;8.134;2022-08-19T07:06:18;22.30;99.90
3300;DHT22;1662;49.310;8.134;2022-08-19T07:08:46;22.30;99.90
3300;DHT22;1662;49.310;8.134;2022-08-19T07:11:15;22.40;99.90
3300;DHT22;1662;49.310;8.134;2022-08-19T07:13:43;22.50;99.90
3300;DHT22;1662;49.310;8.134;2022-08-19T07:16:13;22.40;99.90
3300;DHT22;1662;49.310;8.134;2022-08-19T07:18:40;22.50;99.90
3300;DHT22;1662;49.310;8.134;2022-08-19T07:21:09;22.50;99.90
3300;DHT22;1662;49.310;8.134;2022-08-19T07:23:37;22.60;99.90
3300;DHT22;1662;49.310;8.134;2022-08-19T07:26:12;22.60;99.90
3300;DHT22;1662;49.310;8.134;2022-08-19T07:28:38;22.60;99.90
3300;DHT22;1662;49.310;8.134;2022-08-19T07:31:27;22.60;99.90
3300;DHT22;1662;49.310;8.134;2022-08-19T07:33:55;22.60;99.90
3300;DHT22;1662;49.310;8.134;2022-08-19T07:36:25;22.60;99.90
3300;DHT22;1662;49.310;8.134;2022-08-19T07:38:56;22.60;99.90
3300;DHT22;1662;49.310;8.134;2022-08-19T07:41:24;22.60;99.90
3300;DHT22;1662;49.310;8.134;2022-08-19T07:43:51;22.70;99.90
3300;DHT22;1662;49.310;8.134;2022-08-19T07:46:17;22.70;99.90
3300;DHT22;1662;49.310;8.134;2022-08-19T07:48:44;22.70;99.90
3300;DHT22;1662;49.310;8.134;2022-08-19T07:51:16;22.70;99.90
3300;DHT22;1662;49.310;8.134;2022-08-19T07:53:42;22.70;99.90
3300;DHT22;1662;49.310;8.134;2022-08-19T07:56:10;22.80;99.90
3300;DHT22;1662;49.310;8.134;2022-08-19T07:58:39;22.90;99.90
3300;DHT22;1662;49.310;8.134;2022-08-19T08:01:06;23.00;99.90
3300;DHT22;1662;49.310;8.134;2022-08-19T08:03:32;23.10;99.90
3300;DHT22;1662;49.310;8.134;2022-08-19T08:06:17;23.20;99.90
3300;DHT22;1662;49.310;8.134;2022-08-19T08:09:03;23.20;99.90
3300;DHT22;1662;49.310;8.134;2022-08-19T08:12:29;23.30;99.90
3300;DHT22;1662;49.310;8.134;2022-08-19T08:14:38;23.40;99.90
3300;DHT22;1662;49.310;8.134;2022-08-19T08:17:07;23.40;99.90
3300;DHT22;1662;49.310;8.134;2022-08-19T08:19:34;23.40;99.90
3300;DHT22;1662;49.310;8.134;2022-08-19T08:22:00;23.40;99.90
3300;DHT22;1662;49.310;8.134;2022-08-19T08:24:28;23.50;99.90
3300;DHT22;1662;49.310;8.134;2022-08-19T08:26:58;23.60;99.90
3300;DHT22;1662;49.310;8.134;2022-08-19T08:29:25;23.70;99.90
3300;DHT22;1662;49.310;8.134;2022-08-19T08:31:52;23.70;99.90
3300;DHT22;1662;49.310;8.134;2022-08-19T08:34:18;23.80;99.90
3300;DHT22;1662;49.310;8.134;2022-08-19T08:36:45;23.90;99.90
3300;DHT22;1662;49.310;8.134;2022-08-19T08:39:14;24.20;99.90
3300;DHT22;1662;49.310;8.134;2022-08-19T08:44:31;24.40;99.90
3300;DHT22;1662;49.310;8.134;2022-08-19T08:47:10;24.50;99.90
3300;DHT22;1662;49.310;8.134;2022-08-19T08:52:26;24.70;99.90
3300;DHT22;1662;49.310;8.134;2022-08-19T08:54:55;24.80;99.90
3300;DHT22;1662;49.310;8.134;2022-08-19T08:59:54;24.70;99.90
3300;DHT22;1662;49.310;8.134;2022-08-19T09:02:22;24.60;99.90
3300;DHT22;1662;49.310;8.134;2022-08-19T09:04:48;24.70;99.90
3300;DHT22;1662;49.310;8.134;2022-08-19T09:09:55;24.70;99.90
3300;DHT22;1662;49.310;8.134;2022-08-19T09:12:56;24.70;99.90
3300;DHT22;1662;49.310;8.134;2022-08-19T09:15:36;24.70;99.90
3300;DHT22;1662;49.310;8.134;2022-08-19T09:18:04;24.80;99.90
3300;DHT22;1662;49.310;8.134;2022-08-19T09:20:31;24.80;99.90
3300;DHT22;1662;49.310;8.134;2022-08-19T09:22:57;24.90;99.90
3300;DHT22;1662;49.310;8.134;2022-08-19T09:25:24;25.00;99.90
3300;DHT22;1662;49.310;8.134;2022-08-19T09:27:51;25.20;99.90
3300;DHT22;1662;49.310;8.134;2022-08-19T09:30:22;25.30;99.90
3300;DHT22;1662;49.310;8.134;2022-08-19T09:32:49;25.40;99.90
3300;DHT22;1662;49.310;8.134;2022-08-19T09:35:15;25.50;99.90
3300;DHT22;1662;49.310;8.134;2022-08-19T09:37:42;25.80;99.90
3300;DHT22;1662;49.310;8.134;2022-08-19T09:40:08;25.80;99.90
3300;DHT22;1662;49.310;8.134;2022-08-19T09:42:34;25.80;99.90
3300;DHT22;1662;49.310;8.134;2022-08-19T09:45:03;26.00;99.90
3300;DHT22;1662;49.310;8.134;2022-08-19T09:47:29;26.20;99.90
3300;DHT22;1662;49.310;8.134;2022-08-19T09:49:55;26.30;99.90
3300;DHT22;1662;49.310;8.134;2022-08-19T09:52:21;26.40;99.90
3300;DHT22;1662;49.310;8.134;2022-08-19T09:54:46;26.60;99.90
3300;DHT22;1662;49.310;8.134;2022-08-19T09:57:12;26.70;99.90
3300;DHT22;1662;49.310;8.134;2022-08-19T09:59:38;26.90;99.90
3300;DHT22;1662;49.310;8.134;2022-08-19T10:02:04;26.90;99.90
3300;DHT22;1662;49.310;8.134;2022-08-19T10:04:30;27.10;99.90
3300;DHT22;1662;49.310;8.134;2022-08-19T10:07:14;27.10;99.90
3300;DHT22;1662;49.310;8.134;2022-08-19T10:09:40;27.10;99.90
3300;DHT22;1662;49.310;8.134;2022-08-19T10:12:09;27.30;99.90
3300;DHT22;1662;49.310;8.134;2022-08-19T10:14:34;27.40;99.90
3300;DHT22;1662;49.310;8.134;2022-08-19T10:17:01;27.50;99.90
3300;DHT22;1662;49.310;8.134;2022-08-19T10:19:28;27.40;99.90
3300;DHT22;1662;49.310;8.134;2022-08-19T10:21:57;27.30;99.90
3300;DHT22;1662;49.310;8.134;2022-08-19T10:24:23;27.10;99.90
3300;DHT22;1662;49.310;8.134;2022-08-19T10:26:51;27.00;99.90
3300;DHT22;1662;49.310;8.134;2022-08-19T10:29:18;26.90;99.90
3300;DHT22;1662;49.310;8.134;2022-08-19T10:31:44;26.90;99.90
3300;DHT22;1662;49.310;8.134;2022-08-19T10:34:10;27.00;99.90
3300;DHT22;1662;49.310;8.134;2022-08-19T10:36:36;27.20;99.90
3300;DHT22;1662;49.310;8.134;2022-08-19T10:39:09;27.30;99.90
3300;DHT22;1662;49.310;8.134;2022-08-19T10:41:37;27.10;99.90
3300;DHT22;1662;49.310;8.134;2022-08-19T10:44:10;26.90;99.90
3300;DHT22;1662;49.310;8.134;2022-08-19T10:46:38;26.80;99.90
3300;DHT22;1662;49.310;8.134;2022-08-19T10:49:06;26.80;99.90
3300;DHT22;1662;49.310;8.134;2022-08-19T10:51:34;26.90;99.90
3300;DHT22;1662;49.310;8.134;2022-08-19T10:54:18;27.00;99.90
3300;DHT22;1662;49.310;8.134;2022-08-19T10:56:44;27.20;99.90
3300;DHT22;1662;49.310;8.134;2022-08-19T10:59:25;27.40;99.90
3300;DHT22;1662;49.310;8.134;2022-08-19T11:01:53;27.60;99.90
3300;DHT22;1662;49.310;8.134;2022-08-19T11:04:20;27.60;99.90
3300;DHT22;1662;49.310;8.134;2022-08-19T11:06:48;27.60;99.90
3300;DHT22;1662;49.310;8.134;2022-08-19T11:09:22;27.50;99.90
3300;DHT22;1662;49.310;8.134;2022-08-19T11:11:54;27.30;99.90
3300;DHT22;1662;49.310;8.134;2022-08-19T11:14:24;27.40;99.90
3300;DHT22;1662;49.310;8.134;2022-08-19T11:16:51;27.70;99.90
3300;DHT22;1662;49.310;8.134;2022-08-19T11:19:22;27.80;99.90
3300;DHT22;1662;49.310;8.134;2022-08-19T11:21:50;28.00;99.90
3300;DHT22;1662;49.310;8.134;2022-08-19T11:24:22;28.10;99.90
3300;DHT22;1662;49.310;8.134;2022-08-19T11:26:49;28.20;99.90
3300;DHT22;1662;49.310;8.134;2022-08-19T11:29:17;28.20;99.90
3300;DHT22;1662;49.310;8.134;2022-08-19T11:31:46;28.30;99.90
3300;DHT22;1662;49.310;8.134;2022-08-19T11:34:18;28.60;99.90
3300;DHT22;1662;49.310;8.134;2022-08-19T11:36:45;28.90;99.90
3300;DHT22;1662;49.310;8.134;2022-08-19T11:39:13;28.90;99.90
3300;DHT22;1662;49.310;8.134;2022-08-19T11:41:41;29.00;99.90
3300;DHT22;1662;49.310;8.134;2022-08-19T11:44:07;29.10;99.90
3300;DHT22;1662;49.310;8.134;2022-08-19T11:46:37;29.30;99.90
3300;DHT22;1662;49.310;8.134;2022-08-19T11:49:04;29.40;99.90
3300;DHT22;1662;49.310;8.134;2022-08-19T11:51:30;29.50;99.90
3300;DHT22;1662;49.310;8.134;2022-08-19T11:53:57;29.70;99.90
3300;DHT22;1662;49.310;8.134;2022-08-19T11:56:25;29.70;99.90
3300;DHT22;1662;49.310;8.134;2022-08-19T11:58:54;29.80;99.90
3300;DHT22;1662;49.310;8.134;2022-08-19T12:01:23;29.90;99.90
3300;DHT22;1662;49.310;8.134;2022-08-19T12:03:51;30.00;99.90
3300;DHT22;1662;49.310;8.134;2022-08-19T12:06:27;30.00;99.90
3300;DHT22;1662;49.310;8.134;2022-08-19T12:08:55;30.00;99.60
3300;DHT22;1662;49.310;8.134;2022-08-19T12:11:21;30.20;99.40
3300;DHT22;1662;49.310;8.134;2022-08-19T12:13:49;30.30;97.60
3300;DHT22;1662;49.310;8.134;2022-08-19T12:16:21;30.50;98.60
3300;DHT22;1662;49.310;8.134;2022-08-19T12:18:48;30.60;96.90
3300;DHT22;1662;49.310;8.134;2022-08-19T12:21:20;30.70;94.50
3300;DHT22;1662;49.310;8.134;2022-08-19T12:23:48;30.80;94.20
3300;DHT22;1662;49.310;8.134;2022-08-19T12:26:15;31.00;93.60
3300;DHT22;1662;49.310;8.134;2022-08-19T12:28:41;31.00;92.10
3300;DHT22;1662;49.310;8.134;2022-08-19T12:31:07;31.10;93.00
3300;DHT22;1662;49.310;8.134;2022-08-19T12:33:33;31.40;96.50
3300;DHT22;1662;49.310;8.134;2022-08-19T12:36:07;31.60;93.30
3300;DHT22;1662;49.310;8.134;2022-08-19T12:38:34;31.50;91.80
3300;DHT22;1662;49.310;8.134;2022-08-19T12:41:03;31.30;91.40
3300;DHT22;1662;49.310;8.134;2022-08-19T12:43:31;31.20;91.60
3300;DHT22;1662;49.310;8.134;2022-08-19T12:45:57;31.30;91.00
3300;DHT22;1662;49.310;8.134;2022-08-19T12:48:25;31.30;92.20
3300;DHT22;1662;49.310;8.134;2022-08-19T12:50:51;31.60;91.50
3300;DHT22;1662;49.310;8.134;2022-08-19T12:53:16;31.90;88.60
3300;DHT22;1662;49.310;8.134;2022-08-19T12:55:42;31.90;87.50
3300;DHT22;1662;49.310;8.134;2022-08-19T12:58:09;32.10;90.50
3300;DHT22;1662;49.310;8.134;2022-08-19T13:00:34;32.20;86.40
3300;DHT22;1662;49.310;8.134;2022-08-19T13:03:02;32.30;85.60
3300;DHT22;1662;49.310;8.134;2022-08-19T13:05:30;32.40;83.70
3300;DHT22;1662;49.310;8.134;2022-08-19T13:07:57;32.40;83.20
3300;DHT22;1662;49.310;8.134;2022-08-19T13:10:28;32.40;83.80
3300;DHT22;1662;49.310;8.134;2022-08-19T13:12:54;32.60;85.00
3300;DHT22;1662;49.310;8.134;2022-08-19T13:15:22;32.90;82.80
3300;DHT22;1662;49.310;8.134;2022-08-19T13:17:49;33.00;79.80
3300;DHT22;1662;49.310;8.134;2022-08-19T13:20:17;33.10;80.70
3300;DHT22;1662;49.310;8.134;2022-08-19T13:22:46;33.30;84.00
3300;DHT22;1662;49.310;8.134;2022-08-19T13:25:14;33.20;81.70
3300;DHT22;1662;49.310;8.134;2022-08-19T13:27:43;33.20;81.30
3300;DHT22;1662;49.310;8.134;2022-08-19T13:30:11;33.30;80.40
3300;DHT22;1662;49.310;8.134;2022-08-19T13:32:55;33.20;80.90
3300;DHT22;1662;49.310;8.134;2022-08-19T13:35:48;32.80;79.70
3300;DHT22;1662;49.310;8.134;2022-08-19T13:38:20;32.50;80.40
3300;DHT22;1662;49.310;8.134;2022-08-19T13:40:46;32.10;80.30
3300;DHT22;1662;49.310;8.134;2022-08-19T13:43:13;31.80;80.10
3300;DHT22;1662;49.310;8.134;2022-08-19T13:45:39;31.30;80.60
3300;DHT22;1662;49.310;8.134;2022-08-19T13:48:06;31.10;82.00
3300;DHT22;1662;49.310;8.134;2022-08-19T13:50:38;30.90;82.90
3300;DHT22;1662;49.310;8.134;2022-08-19T13:53:07;30.80;83.00
3300;DHT22;1662;49.310;8.134;2022-08-19T13:55:33;30.70;83.60
3300;DHT22;1662;49.310;8.134;2022-08-19T13:58:00;30.60;82.80
3300;DHT22;1662;49.310;8.134;2022-08-19T14:00:30;30.50;82.30
3300;DHT22;1662;49.310;8.134;2022-08-19T14:02:57;30.30;83.20
3300;DHT22;1662;49.310;8.134;2022-08-19T14:05:24;30.20;83.70
3300;DHT22;1662;49.310;8.134;2022-08-19T14:07:50;30.20;84.10
3300;DHT22;1662;49.310;8.134;2022-08-19T14:10:17;30.10;85.00
3300;DHT22;1662;49.310;8.134;2022-08-19T14:12:43;30.00;85.30
3300;DHT22;1662;49.310;8.134;2022-08-19T14:15:11;30.00;85.90
3300;DHT22;1662;49.310;8.134;2022-08-19T14:17:44;29.90;85.40
3300;DHT22;1662;49.310;8.134;2022-08-19T14:20:14;29.90;85.10
3300;DHT22;1662;49.310;8.134;2022-08-19T14:22:41;29.80;83.30
3300;DHT22;1662;49.310;8.134;2022-08-19T14:25:10;29.80;85.10
3300;DHT22;1662;49.310;8.134;2022-08-19T14:27:38;29.90;85.60
3300;DHT22;1662;49.310;8.134;2022-08-19T14:30:08;30.00;84.30
3300;DHT22;1662;49.310;8.134;2022-08-19T14:32:34;30.40;84.60
3300;DHT22;1662;49.310;8.134;2022-08-19T14:35:04;30.80;82.40
3300;DHT22;1662;49.310;8.134;2022-08-19T14:37:30;31.00;82.30
3300;DHT22;1662;49.310;8.134;2022-08-19T14:39:58;31.30;82.40
3300;DHT22;1662;49.310;8.134;2022-08-19T14:42:23;31.60;81.10
3300;DHT22;1662;49.310;8.134;2022-08-19T14:44:49;31.80;80.60
3300;DHT22;1662;49.310;8.134;2022-08-19T14:47:14;31.90;79.00
3300;DHT22;1662;49.310;8.134;2022-08-19T14:49:40;32.00;78.90
3300;DHT22;1662;49.310;8.134;2022-08-19T14:52:06;31.80;78.60
3300;DHT22;1662;49.310;8.134;2022-08-19T14:54:31;31.70;79.20
3300;DHT22;1662;49.310;8.134;2022-08-19T14:56:57;31.50;80.20
3300;DHT22;1662;49.310;8.134;2022-08-19T14:59:23;31.40;79.30
3300;DHT22;1662;49.310;8.134;2022-08-19T15:01:49;31.30;79.80
3300;DHT22;1662;49.310;8.134;2022-08-19T15:04:14;31.20;81.30
3300;DHT22;1662;49.310;8.134;2022-08-19T15:06:40;31.10;80.40
3300;DHT22;1662;49.310;8.134;2022-08-19T15:09:08;31.10;81.10
3300;DHT22;1662;49.310;8.134;2022-08-19T15:11:33;30.90;79.10
3300;DHT22;1662;49.310;8.134;2022-08-19T15:13:59;30.80;78.20
3300;DHT22;1662;49.310;8.134;2022-08-19T15:16:29;30.80;77.90
3300;DHT22;1662;49.310;8.134;2022-08-19T15:18:57;30.70;77.30
3300;DHT22;1662;49.310;8.134;2022-08-19T15:21:24;30.60;77.60
3300;DHT22;1662;49.310;8.134;2022-08-19T15:23:51;30.60;76.80
3300;DHT22;1662;49.310;8.134;2022-08-19T15:26:20;30.50;77.90
3300;DHT22;1662;49.310;8.134;2022-08-19T15:28:46;30.60;77.50
3300;DHT22;1662;49.310;8.134;2022-08-19T15:31:13;30.60;76.50
3300;DHT22;1662;49.310;8.134;2022-08-19T15:33:42;30.60;77.30
3300;DHT22;1662;49.310;8.134;2022-08-19T15:36:08;30.60;77.90
3300;DHT22;1662;49.310;8.134;2022-08-19T15:38:34;30.50;76.80
3300;DHT22;1662;49.310;8.134;2022-08-19T15:41:03;30.50;76.00
3300;DHT22;1662;49.310;8.134;2022-08-19T15:44:08;30.70;77.30
3300;DHT22;1662;49.310;8.134;2022-08-19T15:46:37;30.90;76.70
3300;DHT22;1662;49.310;8.134;2022-08-19T15:49:04;31.00;78.50
3300;DHT22;1662;49.310;8.134;2022-08-19T15:51:32;31.10;79.20
3300;DHT22;1662;49.310;8.134;2022-08-19T15:54:04;31.00;78.90
3300;DHT22;1662;49.310;8.134;2022-08-19T15:56:30;30.80;80.10
3300;DHT22;1662;49.310;8.134;2022-08-19T15:59:16;30.80;79.70
3300;DHT22;1662;49.310;8.134;2022-08-19T16:02:00;30.80;79.20
3300;DHT22;1662;49.310;8.134;2022-08-19T16:04:44;30.70;79.50
3300;DHT22;1662;49.310;8.134;2022-08-19T16:07:28;30.60;80.00
3300;DHT22;1662;49.310;8.134;2022-08-19T16:09:57;30.60;79.50
3300;DHT22;1662;49.310;8.134;2022-08-19T16:12:22;30.50;79.60
3300;DHT22;1662;49.310;8.134;2022-08-19T16:14:52;30.50;80.10
3300;DHT22;1662;49.310;8.134;2022-08-19T16:17:17;30.40;80.80
3300;DHT22;1662;49.310;8.134;2022-08-19T16:19:43;30.40;81.00
3300;DHT22;1662;49.310;8.134;2022-08-19T16:22:09;30.30;84.60
3300;DHT22;1662;49.310;8.134;2022-08-19T16:24:34;30.40;84.40